sensor_id;sensor_type;location;lat;lon;timestamp;P1;durP1;ratioP1;P2;durP2;ratioP2
65162;SDS011;51751;55.714;37.436;2023-04-03T00:00:40;11.45;;;5.32;;
65162;SDS011;51751;55.714;37.436;2023-04-03T00:03:25;12.05;;;5.50;;
65162;SDS011;51751;55.714;37.436;2023-04-03T00:05:50;22.05;;;10.40;;
65162;SDS011;51751;55.714;37.436;2023-04-03T00:08:16;31.55;;;15.95;;
65162;SDS011;51751;55.714;37.436;2023-04-03T00:11:01;28.38;;;14.05;;
65162;SDS011;51751;55.714;37.436;2023-04-03T00:13:27;40.15;;;21.00;;
65162;SDS011;51751;55.714;37.436;2023-04-03T00:15:52;29.70;;;18.15;;
65162;SDS011;51751;55.714;37.436;2023-04-03T00:18:18;32.65;;;18.00;;
65162;SDS011;51751;55.714;37.436;2023-04-03T00:20:44;30.17;;;16.50;;
65162;SDS011;51751;55.714;37.436;2023-04-03T00:23:10;34.05;;;16.27;;
65162;SDS011;51751;55.714;37.436;2023-04-03T00:25:36;29.25;;;16.00;;
65162;SDS011;51751;55.714;37.436;2023-04-03T00:28:02;33.90;;;17.35;;
65162;SDS011;51751;55.714;37.436;2023-04-03T00:30:29;32.17;;;16.95;;
65162;SDS011;51751;55.714;37.436;2023-04-03T00:32:55;32.85;;;15.95;;
65162;SDS011;51751;55.714;37.436;2023-04-03T00:35:22;28.75;;;16.27;;
65162;SDS011;51751;55.714;37.436;2023-04-03T00:37:50;24.33;;;12.93;;
65162;SDS011;51751;55.714;37.436;2023-04-03T00:40:17;22.42;;;11.13;;
65162;SDS011;51751;55.714;37.436;2023-04-03T00:42:43;21.23;;;11.57;;
65162;SDS011;51751;55.714;37.436;2023-04-03T00:47:37;16.88;;;10.50;;
65162;SDS011;51751;55.714;37.436;2023-04-03T00:50:05;14.52;;;7.80;;
65162;SDS011;51751;55.714;37.436;2023-04-03T00:52:31;13.68;;;8.70;;
65162;SDS011;51751;55.714;37.436;2023-04-03T00:54:58;21.08;;;8.70;;
65162;SDS011;51751;55.714;37.436;2023-04-03T00:57:26;17.65;;;7.93;;
65162;SDS011;51751;55.714;37.436;2023-04-03T00:59:57;19.55;;;8.75;;
65162;SDS011;51751;55.714;37.436;2023-04-03T01:03:04;16.15;;;8.07;;
65162;SDS011;51751;55.714;37.436;2023-04-03T01:05:30;16.27;;;8.95;;
65162;SDS011;51751;55.714;37.436;2023-04-03T01:08:00;18.60;;;11.32;;
65162;SDS011;51751;55.714;37.436;2023-04-03T01:10:27;20.38;;;10.50;;
65162;SDS011;51751;55.714;37.436;2023-04-03T01:12:53;17.10;;;9.77;;
65162;SDS011;51751;55.714;37.436;2023-04-03T01:15:21;21.02;;;8.65;;
65162;SDS011;51751;55.714;37.436;2023-04-03T01:17:52;15.88;;;7.22;;
65162;SDS011;51751;55.714;37.436;2023-04-03T01:25:52;17.60;;;9.15;;
65162;SDS011;51751;55.714;37.436;2023-04-03T01:28:38;15.18;;;8.50;;
65162;SDS011;51751;55.714;37.436;2023-04-03T01:34:33;13.30;;;7.65;;
65162;SDS011;51751;55.714;37.436;2023-04-03T01:37:00;15.27;;;7.60;;
65162;SDS011;51751;55.714;37.436;2023-04-03T01:39:26;15.77;;;7.82;;
65162;SDS011;51751;55.714;37.436;2023-04-03T01:42:10;13.77;;;7.75;;
65162;SDS011;51751;55.714;37.436;2023-04-03T01:44:39;13.48;;;7.45;;
65162;SDS011;51751;55.714;37.436;2023-04-03T01:47:07;15.82;;;7.40;;
65162;SDS011;51751;55.714;37.436;2023-04-03T01:49:35;14.68;;;7.65;;
65162;SDS011;51751;55.714;37.436;2023-04-03T01:52:01;17.00;;;7.40;;
65162;SDS011;51751;55.714;37.436;2023-04-03T01:54:45;13.88;;;7.45;;
65162;SDS011;51751;55.714;37.436;2023-04-03T01:57:11;12.35;;;7.80;;
65162;SDS011;51751;55.714;37.436;2023-04-03T01:59:42;14.27;;;8.23;;
65162;SDS011;51751;55.714;37.436;2023-04-03T02:02:08;14.60;;;7.70;;
65162;SDS011;51751;55.714;37.436;2023-04-03T02:04:37;14.40;;;8.02;;
65162;SDS011;51751;55.714;37.436;2023-04-03T02:07:29;14.10;;;7.68;;
65162;SDS011;51751;55.714;37.436;2023-04-03T02:10:02;17.75;;;7.78;;
65162;SDS011;51751;55.714;37.436;2023-04-03T02:12:28;14.90;;;7.40;;
65162;SDS011;51751;55.714;37.436;2023-04-03T02:14:54;14.43;;;7.18;;
65162;SDS011;51751;55.714;37.436;2023-04-03T02:17:20;14.23;;;7.55;;
65162;SDS011;51751;55.714;37.436;2023-04-03T02:19:46;13.43;;;7.53;;
65162;SDS011;51751;55.714;37.436;2023-04-03T02:22:12;14.40;;;7.45;;
65162;SDS011;51751;55.714;37.436;2023-04-03T02:24:38;18.42;;;8.35;;
65162;SDS011;51751;55.714;37.436;2023-04-03T02:27:05;12.38;;;7.80;;
65162;SDS011;51751;55.714;37.436;2023-04-03T02:29:31;12.05;;;7.13;;
65162;SDS011;51751;55.714;37.436;2023-04-03T02:32:00;13.90;;;7.63;;
65162;SDS011;51751;55.714;37.436;2023-04-03T02:34:26;12.35;;;7.68;;
65162;SDS011;51751;55.714;37.436;2023-04-03T02:36:57;14.63;;;7.53;;
65162;SDS011;51751;55.714;37.436;2023-04-03T02:39:23;13.30;;;7.82;;
65162;SDS011;51751;55.714;37.436;2023-04-03T02:41:53;12.30;;;6.68;;
65162;SDS011;51751;55.714;37.436;2023-04-03T02:44:22;14.68;;;7.85;;
65162;SDS011;51751;55.714;37.436;2023-04-03T02:46:51;14.85;;;7.75;;
65162;SDS011;51751;55.714;37.436;2023-04-03T02:49:17;12.95;;;7.47;;
65162;SDS011;51751;55.714;37.436;2023-04-03T02:51:43;15.13;;;7.30;;
65162;SDS011;51751;55.714;37.436;2023-04-03T02:54:11;11.32;;;6.82;;
65162;SDS011;51751;55.714;37.436;2023-04-03T02:56:41;15.70;;;7.47;;
65162;SDS011;51751;55.714;37.436;2023-04-03T02:59:07;12.88;;;7.00;;
65162;SDS011;51751;55.714;37.436;2023-04-03T03:01:35;14.55;;;7.60;;
65162;SDS011;51751;55.714;37.436;2023-04-03T03:04:02;10.98;;;6.70;;
65162;SDS011;51751;55.714;37.436;2023-04-03T03:06:27;12.43;;;6.53;;
65162;SDS011;51751;55.714;37.436;2023-04-03T03:08:53;17.33;;;6.95;;
65162;SDS011;51751;55.714;37.436;2023-04-03T03:11:19;12.50;;;6.88;;
65162;SDS011;51751;55.714;37.436;2023-04-03T03:13:46;11.80;;;7.07;;
65162;SDS011;51751;55.714;37.436;2023-04-03T03:16:12;12.30;;;6.97;;
65162;SDS011;51751;55.714;37.436;2023-04-03T03:18:57;13.45;;;7.00;;
65162;SDS011;51751;55.714;37.436;2023-04-03T03:21:26;13.75;;;7.35;;
65162;SDS011;51751;55.714;37.436;2023-04-03T03:23:52;14.73;;;7.30;;
65162;SDS011;51751;55.714;37.436;2023-04-03T03:26:36;17.67;;;6.45;;
65162;SDS011;51751;55.714;37.436;2023-04-03T03:29:04;12.13;;;6.88;;
65162;SDS011;51751;55.714;37.436;2023-04-03T03:31:31;13.38;;;6.80;;
65162;SDS011;51751;55.714;37.436;2023-04-03T03:34:15;11.68;;;6.97;;
65162;SDS011;51751;55.714;37.436;2023-04-03T03:36:42;12.70;;;6.93;;
65162;SDS011;51751;55.714;37.436;2023-04-03T03:39:09;18.67;;;6.82;;
65162;SDS011;51751;55.714;37.436;2023-04-03T03:41:35;17.60;;;6.97;;
65162;SDS011;51751;55.714;37.436;2023-04-03T03:44:02;14.27;;;7.15;;
65162;SDS011;51751;55.714;37.436;2023-04-03T03:46:34;12.98;;;6.80;;
65162;SDS011;51751;55.714;37.436;2023-04-03T03:49:00;10.63;;;6.60;;
65162;SDS011;51751;55.714;37.436;2023-04-03T03:51:26;13.43;;;6.65;;
65162;SDS011;51751;55.714;37.436;2023-04-03T03:53:52;13.70;;;6.60;;
65162;SDS011;51751;55.714;37.436;2023-04-03T03:56:19;17.73;;;6.82;;
65162;SDS011;51751;55.714;37.436;2023-04-03T03:58:46;9.50;;;6.43;;
65162;SDS011;51751;55.714;37.436;2023-04-03T04:01:12;11.13;;;6.82;;
65162;SDS011;51751;55.714;37.436;2023-04-03T04:03:43;12.80;;;6.65;;
65162;SDS011;51751;55.714;37.436;2023-04-03T04:06:12;9.75;;;6.47;;
65162;SDS011;51751;55.714;37.436;2023-04-03T04:08:38;12.13;;;6.90;;
65162;SDS011;51751;55.714;37.436;2023-04-03T04:11:08;10.98;;;6.82;;
65162;SDS011;51751;55.714;37.436;2023-04-03T04:13:34;14.60;;;7.22;;
65162;SDS011;51751;55.714;37.436;2023-04-03T04:16:00;11.80;;;6.70;;
65162;SDS011;51751;55.714;37.436;2023-04-03T04:18:30;11.27;;;7.45;;
65162;SDS011;51751;55.714;37.436;2023-04-03T04:20:56;12.63;;;7.32;;
65162;SDS011;51751;55.714;37.436;2023-04-03T04:23:22;13.82;;;7.07;;
65162;SDS011;51751;55.714;37.436;2023-04-03T04:25:49;12.20;;;6.90;;
65162;SDS011;51751;55.714;37.436;2023-04-03T04:28:16;10.38;;;6.82;;
65162;SDS011;51751;55.714;37.436;2023-04-03T04:30:42;16.08;;;6.85;;
65162;SDS011;51751;55.714;37.436;2023-04-03T04:33:09;12.95;;;7.72;;
65162;SDS011;51751;55.714;37.436;2023-04-03T04:35:36;13.88;;;7.40;;
65162;SDS011;51751;55.714;37.436;2023-04-03T04:38:02;12.27;;;7.35;;
65162;SDS011;51751;55.714;37.436;2023-04-03T04:40:28;12.20;;;7.10;;
65162;SDS011;51751;55.714;37.436;2023-04-03T04:42:55;14.30;;;7.65;;
65162;SDS011;51751;55.714;37.436;2023-04-03T04:45:21;13.38;;;7.22;;
65162;SDS011;51751;55.714;37.436;2023-04-03T04:47:47;11.63;;;7.70;;
65162;SDS011;51751;55.714;37.436;2023-04-03T04:50:14;15.07;;;7.72;;
65162;SDS011;51751;55.714;37.436;2023-04-03T04:52:47;15.32;;;8.05;;
65162;SDS011;51751;55.714;37.436;2023-04-03T04:55:13;14.07;;;7.60;;
65162;SDS011;51751;55.714;37.436;2023-04-03T04:57:39;15.18;;;8.25;;
65162;SDS011;51751;55.714;37.436;2023-04-03T05:00:08;16.10;;;8.65;;
65162;SDS011;51751;55.714;37.436;2023-04-03T05:02:35;15.07;;;8.50;;
65162;SDS011;51751;55.714;37.436;2023-04-03T05:05:01;11.43;;;7.82;;
65162;SDS011;51751;55.714;37.436;2023-04-03T05:07:28;12.60;;;7.45;;
65162;SDS011;51751;55.714;37.436;2023-04-03T05:09:58;15.65;;;8.43;;
65162;SDS011;51751;55.714;37.436;2023-04-03T05:12:24;15.88;;;8.63;;
65162;SDS011;51751;55.714;37.436;2023-04-03T05:14:55;14.18;;;7.80;;
65162;SDS011;51751;55.714;37.436;2023-04-03T05:17:21;16.85;;;8.05;;
65162;SDS011;51751;55.714;37.436;2023-04-03T05:19:50;12.85;;;7.70;;
65162;SDS011;51751;55.714;37.436;2023-04-03T05:22:19;15.32;;;8.50;;
65162;SDS011;51751;55.714;37.436;2023-04-03T05:24:45;19.98;;;8.10;;
65162;SDS011;51751;55.714;37.436;2023-04-03T05:27:11;18.00;;;8.20;;
65162;SDS011;51751;55.714;37.436;2023-04-03T05:29:41;11.50;;;7.85;;
65162;SDS011;51751;55.714;37.436;2023-04-03T05:32:11;13.30;;;8.77;;
65162;SDS011;51751;55.714;37.436;2023-04-03T05:34:37;13.95;;;8.15;;
65162;SDS011;51751;55.714;37.436;2023-04-03T05:37:03;24.52;;;9.13;;
65162;SDS011;51751;55.714;37.436;2023-04-03T05:39:30;13.45;;;7.95;;
65162;SDS011;51751;55.714;37.436;2023-04-03T05:41:59;15.88;;;8.30;;
65162;SDS011;51751;55.714;37.436;2023-04-03T05:44:26;15.15;;;8.43;;
65162;SDS011;51751;55.714;37.436;2023-04-03T05:46:53;15.40;;;8.13;;
65162;SDS011;51751;55.714;37.436;2023-04-03T05:49:19;13.10;;;8.43;;
65162;SDS011;51751;55.714;37.436;2023-04-03T05:51:45;15.35;;;8.35;;
65162;SDS011;51751;55.714;37.436;2023-04-03T05:54:21;16.83;;;9.30;;
65162;SDS011;51751;55.714;37.436;2023-04-03T05:56:52;17.55;;;8.48;;
65162;SDS011;51751;55.714;37.436;2023-04-03T05:59:19;14.35;;;9.07;;
65162;SDS011;51751;55.714;37.436;2023-04-03T06:01:47;16.75;;;9.23;;
65162;SDS011;51751;55.714;37.436;2023-04-03T06:04:13;18.20;;;8.98;;
65162;SDS011;51751;55.714;37.436;2023-04-03T06:06:43;14.55;;;8.73;;
65162;SDS011;51751;55.714;37.436;2023-04-03T06:09:10;14.77;;;8.48;;
65162;SDS011;51751;55.714;37.436;2023-04-03T06:11:37;12.88;;;8.77;;
65162;SDS011;51751;55.714;37.436;2023-04-03T06:14:03;25.75;;;9.82;;
65162;SDS011;51751;55.714;37.436;2023-04-03T06:16:29;18.15;;;9.27;;
65162;SDS011;51751;55.714;37.436;2023-04-03T06:18:55;18.13;;;9.43;;
65162;SDS011;51751;55.714;37.436;2023-04-03T06:21:21;13.48;;;9.30;;
65162;SDS011;51751;55.714;37.436;2023-04-03T06:23:47;18.08;;;9.43;;
65162;SDS011;51751;55.714;37.436;2023-04-03T06:26:13;16.13;;;9.65;;
65162;SDS011;51751;55.714;37.436;2023-04-03T06:28:39;18.17;;;9.20;;
65162;SDS011;51751;55.714;37.436;2023-04-03T06:31:05;18.17;;;9.38;;
65162;SDS011;51751;55.714;37.436;2023-04-03T06:33:31;15.15;;;9.55;;
65162;SDS011;51751;55.714;37.436;2023-04-03T06:35:57;18.95;;;9.80;;
65162;SDS011;51751;55.714;37.436;2023-04-03T06:38:24;19.50;;;9.85;;
65162;SDS011;51751;55.714;37.436;2023-04-03T06:40:49;15.60;;;8.95;;
65162;SDS011;51751;55.714;37.436;2023-04-03T06:43:17;17.85;;;9.95;;
65162;SDS011;51751;55.714;37.436;2023-04-03T06:45:43;22.25;;;10.55;;
65162;SDS011;51751;55.714;37.436;2023-04-03T06:48:08;21.02;;;11.57;;
65162;SDS011;51751;55.714;37.436;2023-04-03T06:50:34;38.10;;;12.77;;
65162;SDS011;51751;55.714;37.436;2023-04-03T06:53:00;38.25;;;12.15;;
65162;SDS011;51751;55.714;37.436;2023-04-03T06:55:26;24.40;;;10.35;;
65162;SDS011;51751;55.714;37.436;2023-04-03T06:58:11;27.42;;;11.70;;
65162;SDS011;51751;55.714;37.436;2023-04-03T07:00:37;22.63;;;10.35;;
65162;SDS011;51751;55.714;37.436;2023-04-03T07:03:03;21.70;;;10.50;;
65162;SDS011;51751;55.714;37.436;2023-04-03T07:05:29;28.33;;;11.07;;
65162;SDS011;51751;55.714;37.436;2023-04-03T07:07:56;30.17;;;11.60;;
65162;SDS011;51751;55.714;37.436;2023-04-03T07:10:21;28.98;;;10.80;;
65162;SDS011;51751;55.714;37.436;2023-04-03T07:12:47;19.02;;;9.52;;
65162;SDS011;51751;55.714;37.436;2023-04-03T07:15:13;21.70;;;10.35;;
65162;SDS011;51751;55.714;37.436;2023-04-03T07:17:42;21.17;;;10.45;;
65162;SDS011;51751;55.714;37.436;2023-04-03T07:20:08;22.38;;;9.68;;
65162;SDS011;51751;55.714;37.436;2023-04-03T07:22:34;20.30;;;9.93;;
65162;SDS011;51751;55.714;37.436;2023-04-03T07:25:00;25.90;;;10.15;;
65162;SDS011;51751;55.714;37.436;2023-04-03T07:27:26;22.67;;;9.80;;
65162;SDS011;51751;55.714;37.436;2023-04-03T07:29:52;23.30;;;9.85;;
65162;SDS011;51751;55.714;37.436;2023-04-03T07:32:18;21.38;;;9.02;;
65162;SDS011;51751;55.714;37.436;2023-04-03T07:35:02;23.30;;;8.55;;
65162;SDS011;51751;55.714;37.436;2023-04-03T07:37:29;22.65;;;9.93;;
65162;SDS011;51751;55.714;37.436;2023-04-03T07:39:55;28.02;;;9.07;;
65162;SDS011;51751;55.714;37.436;2023-04-03T07:42:41;21.27;;;9.57;;
65162;SDS011;51751;55.714;37.436;2023-04-03T07:45:07;28.00;;;10.32;;
65162;SDS011;51751;55.714;37.436;2023-04-03T07:47:33;19.17;;;9.48;;
65162;SDS011;51751;55.714;37.436;2023-04-03T07:49:59;23.27;;;9.07;;
65162;SDS011;51751;55.714;37.436;2023-04-03T07:52:25;22.45;;;8.82;;
65162;SDS011;51751;55.714;37.436;2023-04-03T07:54:51;32.85;;;9.25;;
65162;SDS011;51751;55.714;37.436;2023-04-03T07:57:16;28.48;;;8.95;;
65162;SDS011;51751;55.714;37.436;2023-04-03T08:00:01;22.67;;;7.72;;
65162;SDS011;51751;55.714;37.436;2023-04-03T08:02:37;19.85;;;8.50;;
65162;SDS011;51751;55.714;37.436;2023-04-03T08:05:03;23.42;;;8.95;;
65162;SDS011;51751;55.714;37.436;2023-04-03T08:07:32;26.58;;;9.57;;
65162;SDS011;51751;55.714;37.436;2023-04-03T08:09:57;20.25;;;8.65;;
65162;SDS011;51751;55.714;37.436;2023-04-03T08:12:23;17.83;;;8.65;;
65162;SDS011;51751;55.714;37.436;2023-04-03T08:14:49;25.27;;;8.75;;
65162;SDS011;51751;55.714;37.436;2023-04-03T08:17:16;27.00;;;9.00;;
65162;SDS011;51751;55.714;37.436;2023-04-03T08:19:42;29.58;;;9.27;;
65162;SDS011;51751;55.714;37.436;2023-04-03T08:22:07;19.27;;;8.88;;
65162;SDS011;51751;55.714;37.436;2023-04-03T08:24:33;21.73;;;8.45;;
65162;SDS011;51751;55.714;37.436;2023-04-03T08:26:59;20.55;;;7.93;;
65162;SDS011;51751;55.714;37.436;2023-04-03T08:29:26;24.00;;;8.93;;
65162;SDS011;51751;55.714;37.436;2023-04-03T08:31:52;29.05;;;8.85;;
65162;SDS011;51751;55.714;37.436;2023-04-03T08:34:18;24.15;;;9.35;;
65162;SDS011;51751;55.714;37.436;2023-04-03T08:36:44;26.38;;;9.13;;
65162;SDS011;51751;55.714;37.436;2023-04-03T08:39:29;21.05;;;9.25;;
65162;SDS011;51751;55.714;37.436;2023-04-03T08:41:57;23.27;;;9.05;;
65162;SDS011;51751;55.714;37.436;2023-04-03T08:54:52;23.07;;;8.73;;
65162;SDS011;51751;55.714;37.436;2023-04-03T08:57:26;23.63;;;8.70;;
65162;SDS011;51751;55.714;37.436;2023-04-03T08:59:55;27.02;;;7.93;;
65162;SDS011;51751;55.714;37.436;2023-04-03T09:02:43;25.67;;;8.70;;
65162;SDS011;51751;55.714;37.436;2023-04-03T09:05:25;26.80;;;8.75;;
65162;SDS011;51751;55.714;37.436;2023-04-03T09:08:22;24.23;;;9.15;;
65162;SDS011;51751;55.714;37.436;2023-04-03T09:19:20;35.72;;;9.35;;
65162;SDS011;51751;55.714;37.436;2023-04-03T09:22:11;22.73;;;8.80;;
65162;SDS011;51751;55.714;37.436;2023-04-03T09:24:42;19.95;;;9.35;;
65162;SDS011;51751;55.714;37.436;2023-04-03T09:27:10;26.17;;;9.50;;
65162;SDS011;51751;55.714;37.436;2023-04-03T09:29:55;27.67;;;10.13;;
65162;SDS011;51751;55.714;37.436;2023-04-03T09:32:40;23.83;;;9.77;;
65162;SDS011;51751;55.714;37.436;2023-04-03T09:37:42;27.77;;;9.33;;
65162;SDS011;51751;55.714;37.436;2023-04-03T09:42:54;29.05;;;10.13;;
65162;SDS011;51751;55.714;37.436;2023-04-03T09:48:04;23.20;;;9.63;;
65162;SDS011;51751;55.714;37.436;2023-04-03T09:53:35;22.40;;;9.65;;
65162;SDS011;51751;55.714;37.436;2023-04-03T09:56:04;14.10;;;7.55;;
65162;SDS011;51751;55.714;37.436;2023-04-03T09:58:43;15.57;;;8.95;;
65162;SDS011;51751;55.714;37.436;2023-04-03T10:04:14;25.92;;;9.15;;
65162;SDS011;51751;55.714;37.436;2023-04-03T10:06:46;27.65;;;10.70;;
65162;SDS011;51751;55.714;37.436;2023-04-03T10:09:17;24.98;;;11.32;;
65162;SDS011;51751;55.714;37.436;2023-04-03T10:11:58;29.42;;;10.57;;
65162;SDS011;51751;55.714;37.436;2023-04-03T10:14:28;22.75;;;9.68;;
65162;SDS011;51751;55.714;37.436;2023-04-03T10:25:38;26.00;;;9.88;;
65162;SDS011;51751;55.714;37.436;2023-04-03T10:28:16;25.48;;;9.70;;
65162;SDS011;51751;55.714;37.436;2023-04-03T10:39:01;24.52;;;10.05;;
65162;SDS011;51751;55.714;37.436;2023-04-03T10:42:41;20.75;;;9.43;;
65162;SDS011;51751;55.714;37.436;2023-04-03T10:47:36;17.63;;;9.77;;
65162;SDS011;51751;55.714;37.436;2023-04-03T10:57:47;19.73;;;8.88;;
65162;SDS011;51751;55.714;37.436;2023-04-03T11:02:42;19.63;;;8.77;;
65162;SDS011;51751;55.714;37.436;2023-04-03T11:05:18;16.77;;;9.35;;
65162;SDS011;51751;55.714;37.436;2023-04-03T11:07:52;24.13;;;8.37;;
65162;SDS011;51751;55.714;37.436;2023-04-03T11:10:27;16.80;;;8.50;;
65162;SDS011;51751;55.714;37.436;2023-04-03T11:13:21;19.83;;;8.30;;
65162;SDS011;51751;55.714;37.436;2023-04-03T11:15:50;19.00;;;8.60;;
65162;SDS011;51751;55.714;37.436;2023-04-03T11:18:23;17.45;;;8.48;;
65162;SDS011;51751;55.714;37.436;2023-04-03T11:20:57;16.60;;;8.02;;
65162;SDS011;51751;55.714;37.436;2023-04-03T11:23:26;16.75;;;8.50;;
65162;SDS011;51751;55.714;37.436;2023-04-03T11:25:57;19.08;;;8.20;;
65162;SDS011;51751;55.714;37.436;2023-04-03T11:28:30;18.27;;;7.78;;
65162;SDS011;51751;55.714;37.436;2023-04-03T11:31:04;22.98;;;8.25;;
65162;SDS011;51751;55.714;37.436;2023-04-03T11:36:51;22.73;;;8.07;;
65162;SDS011;51751;55.714;37.436;2023-04-03T11:42:45;19.88;;;7.68;;
65162;SDS011;51751;55.714;37.436;2023-04-03T11:45:24;14.52;;;8.15;;
65162;SDS011;51751;55.714;37.436;2023-04-03T11:50:45;14.63;;;7.40;;
65162;SDS011;51751;55.714;37.436;2023-04-03T11:55:52;14.52;;;8.00;;
65162;SDS011;51751;55.714;37.436;2023-04-03T11:58:20;11.50;;;7.60;;
65162;SDS011;51751;55.714;37.436;2023-04-03T12:00:54;14.57;;;7.60;;
65162;SDS011;51751;55.714;37.436;2023-04-03T12:05:52;16.67;;;7.22;;
65162;SDS011;51751;55.714;37.436;2023-04-03T12:08:28;18.80;;;6.35;;
65162;SDS011;51751;55.714;37.436;2023-04-03T12:11:41;18.10;;;6.70;;
65162;SDS011;51751;55.714;37.436;2023-04-03T12:14:15;13.75;;;7.63;;
65162;SDS011;51751;55.714;37.436;2023-04-03T12:16:46;16.30;;;7.00;;
65162;SDS011;51751;55.714;37.436;2023-04-03T12:29:54;16.00;;;7.32;;
65162;SDS011;51751;55.714;37.436;2023-04-03T12:34:51;17.08;;;7.38;;
65162;SDS011;51751;55.714;37.436;2023-04-03T12:47:36;15.68;;;7.43;;
65162;SDS011;51751;55.714;37.436;2023-04-03T12:50:04;14.65;;;7.30;;
65162;SDS011;51751;55.714;37.436;2023-04-03T12:52:43;17.67;;;7.78;;
65162;SDS011;51751;55.714;37.436;2023-04-03T12:55:15;21.75;;;7.05;;
65162;SDS011;51751;55.714;37.436;2023-04-03T12:57:43;16.88;;;6.65;;
65162;SDS011;51751;55.714;37.436;2023-04-03T13:03:21;15.57;;;7.13;;
65162;SDS011;51751;55.714;37.436;2023-04-03T13:05:49;14.90;;;6.95;;
65162;SDS011;51751;55.714;37.436;2023-04-03T13:08:15;13.82;;;6.85;;
65162;SDS011;51751;55.714;37.436;2023-04-03T13:10:50;14.52;;;6.57;;
65162;SDS011;51751;55.714;37.436;2023-04-03T13:13:27;13.80;;;6.43;;
65162;SDS011;51751;55.714;37.436;2023-04-03T13:15:53;9.73;;;4.30;;
65162;SDS011;51751;55.714;37.436;2023-04-03T13:18:39;10.25;;;4.40;;
65162;SDS011;51751;55.714;37.436;2023-04-03T13:21:13;11.63;;;4.60;;
65162;SDS011;51751;55.714;37.436;2023-04-03T13:26:09;8.13;;;4.30;;
65162;SDS011;51751;55.714;37.436;2023-04-03T13:28:35;9.50;;;5.10;;
65162;SDS011;51751;55.714;37.436;2023-04-03T13:33:41;14.38;;;4.85;;
65162;SDS011;51751;55.714;37.436;2023-04-03T13:36:26;12.48;;;5.20;;
65162;SDS011;51751;55.714;37.436;2023-04-03T13:41:40;9.23;;;4.38;;
65162;SDS011;51751;55.714;37.436;2023-04-03T13:44:15;9.13;;;4.40;;
65162;SDS011;51751;55.714;37.436;2023-04-03T13:46:51;9.32;;;4.13;;
65162;SDS011;51751;55.714;37.436;2023-04-03T13:51:56;9.10;;;4.55;;
65162;SDS011;51751;55.714;37.436;2023-04-03T13:54:24;11.23;;;4.15;;
65162;SDS011;51751;55.714;37.436;2023-04-03T13:57:01;7.85;;;3.70;;
65162;SDS011;51751;55.714;37.436;2023-04-03T13:59:32;9.45;;;3.70;;
65162;SDS011;51751;55.714;37.436;2023-04-03T14:04:54;8.15;;;3.97;;
65162;SDS011;51751;55.714;37.436;2023-04-03T14:07:21;6.50;;;4.15;;
65162;SDS011;51751;55.714;37.436;2023-04-03T14:09:48;6.88;;;3.92;;
65162;SDS011;51751;55.714;37.436;2023-04-03T14:12:15;8.15;;;4.20;;
65162;SDS011;51751;55.714;37.436;2023-04-03T14:14:44;10.98;;;5.00;;
65162;SDS011;51751;55.714;37.436;2023-04-03T14:17:18;7.95;;;3.92;;
65162;SDS011;51751;55.714;37.436;2023-04-03T14:19:47;8.10;;;4.18;;
65162;SDS011;51751;55.714;37.436;2023-04-03T14:22:16;10.25;;;4.00;;
65162;SDS011;51751;55.714;37.436;2023-04-03T14:24:44;7.53;;;4.72;;
65162;SDS011;51751;55.714;37.436;2023-04-03T14:27:34;9.05;;;4.15;;
65162;SDS011;51751;55.714;37.436;2023-04-03T14:30:03;10.45;;;4.35;;
65162;SDS011;51751;55.714;37.436;2023-04-03T14:32:30;10.70;;;4.55;;
65162;SDS011;51751;55.714;37.436;2023-04-03T14:34:56;8.07;;;4.97;;
65162;SDS011;51751;55.714;37.436;2023-04-03T14:37:27;10.63;;;5.25;;
65162;SDS011;51751;55.714;37.436;2023-04-03T14:40:14;12.40;;;5.22;;
65162;SDS011;51751;55.714;37.436;2023-04-03T14:42:43;14.75;;;4.85;;
65162;SDS011;51751;55.714;37.436;2023-04-03T14:45:09;12.25;;;5.53;;
65162;SDS011;51751;55.714;37.436;2023-04-03T14:47:39;10.85;;;4.93;;
65162;SDS011;51751;55.714;37.436;2023-04-03T14:50:18;8.73;;;4.90;;
65162;SDS011;51751;55.714;37.436;2023-04-03T14:52:46;14.98;;;5.03;;
65162;SDS011;51751;55.714;37.436;2023-04-03T14:55:15;8.60;;;4.70;;
65162;SDS011;51751;55.714;37.436;2023-04-03T14:57:43;12.05;;;5.45;;
65162;SDS011;51751;55.714;37.436;2023-04-03T15:00:17;10.35;;;4.35;;
65162;SDS011;51751;55.714;37.436;2023-04-03T15:02:50;10.85;;;5.38;;
65162;SDS011;51751;55.714;37.436;2023-04-03T15:05:16;13.25;;;4.85;;
65162;SDS011;51751;55.714;37.436;2023-04-03T15:07:49;10.70;;;5.20;;
65162;SDS011;51751;55.714;37.436;2023-04-03T15:12:50;11.63;;;4.88;;
65162;SDS011;51751;55.714;37.436;2023-04-03T15:15:18;16.25;;;5.30;;
65162;SDS011;51751;55.714;37.436;2023-04-03T15:17:53;10.63;;;5.07;;
65162;SDS011;51751;55.714;37.436;2023-04-03T15:20:21;13.52;;;5.20;;
65162;SDS011;51751;55.714;37.436;2023-04-03T15:22:49;13.23;;;4.88;;
65162;SDS011;51751;55.714;37.436;2023-04-03T15:25:15;17.38;;;4.85;;
65162;SDS011;51751;55.714;37.436;2023-04-03T15:27:41;10.95;;;4.95;;
65162;SDS011;51751;55.714;37.436;2023-04-03T15:30:10;8.70;;;5.18;;
65162;SDS011;51751;55.714;37.436;2023-04-03T15:32:39;11.93;;;4.88;;
65162;SDS011;51751;55.714;37.436;2023-04-03T15:35:05;13.52;;;4.55;;
65162;SDS011;51751;55.714;37.436;2023-04-03T15:37:32;14.30;;;6.28;;
65162;SDS011;51751;55.714;37.436;2023-04-03T15:39:58;14.52;;;5.25;;
65162;SDS011;51751;55.714;37.436;2023-04-03T15:42:24;16.45;;;5.00;;
65162;SDS011;51751;55.714;37.436;2023-04-03T15:44:49;15.52;;;4.97;;
65162;SDS011;51751;55.714;37.436;2023-04-03T15:47:15;10.68;;;4.80;;
65162;SDS011;51751;55.714;37.436;2023-04-03T15:49:41;13.77;;;4.80;;
65162;SDS011;51751;55.714;37.436;2023-04-03T15:52:07;13.63;;;4.97;;
65162;SDS011;51751;55.714;37.436;2023-04-03T15:54:33;16.40;;;5.97;;
65162;SDS011;51751;55.714;37.436;2023-04-03T15:56:59;12.63;;;5.30;;
65162;SDS011;51751;55.714;37.436;2023-04-03T15:59:25;20.90;;;5.70;;
65162;SDS011;51751;55.714;37.436;2023-04-03T16:02:09;17.33;;;6.13;;
65162;SDS011;51751;55.714;37.436;2023-04-03T16:04:38;15.38;;;5.57;;
65162;SDS011;51751;55.714;37.436;2023-04-03T16:07:04;14.20;;;5.80;;
65162;SDS011;51751;55.714;37.436;2023-04-03T16:09:30;17.63;;;5.90;;
65162;SDS011;51751;55.714;37.436;2023-04-03T16:11:57;17.75;;;5.30;;
65162;SDS011;51751;55.714;37.436;2023-04-03T16:14:23;20.65;;;6.07;;
65162;SDS011;51751;55.714;37.436;2023-04-03T16:16:49;16.40;;;6.18;;
65162;SDS011;51751;55.714;37.436;2023-04-03T16:19:15;17.13;;;5.63;;
65162;SDS011;51751;55.714;37.436;2023-04-03T16:21:50;25.48;;;6.20;;
65162;SDS011;51751;55.714;37.436;2023-04-03T16:24:16;17.85;;;5.72;;
65162;SDS011;51751;55.714;37.436;2023-04-03T16:26:42;23.27;;;6.47;;
65162;SDS011;51751;55.714;37.436;2023-04-03T16:29:08;17.63;;;5.47;;
65162;SDS011;51751;55.714;37.436;2023-04-03T16:31:34;17.10;;;6.00;;
65162;SDS011;51751;55.714;37.436;2023-04-03T16:34:00;17.77;;;6.50;;
65162;SDS011;51751;55.714;37.436;2023-04-03T16:36:26;14.07;;;5.78;;
65162;SDS011;51751;55.714;37.436;2023-04-03T16:38:52;12.95;;;6.05;;
65162;SDS011;51751;55.714;37.436;2023-04-03T16:41:37;15.77;;;6.90;;
65162;SDS011;51751;55.714;37.436;2023-04-03T16:44:05;22.23;;;6.75;;
65162;SDS011;51751;55.714;37.436;2023-04-03T16:46:34;20.63;;;6.53;;